To NAV CANADA Home Page Login to a new session Search on AWWS site Disclaimer Vers la page française équivalente Tips FAQ What's new on the site To the Forecasts and Observations / NOTAM section To "File a Flight Plan" website Publications and other links Update of the User's profile FIC Telephone Numbers My Weather Data Folder Route Weather Data Regional Weather Data Local Weather Data To the Forecasts and Observations / NOTAM section
Request Generated 10/19/2018 at 15:39:07 UTC . Weather information available at that time is displayed.

METAR/TAF

BRANDON MUNICIPALITY/MB    

METAR CYBR 191500Z 31018KT 15SM FEW030 07/00 A2996 RMK SC1 SC TR SLP162=
METAR CYBR 191400Z 30012KT 15SM SKC 04/M01 A2993 RMK SLP153=
METAR CYBR 191300Z 29013KT 15SM FEW050 03/M01 A2990 RMK SC1 SLP143=

TAF CYBR 191138Z 1912/1924 30012KT P6SM FEW250
BECMG 1913/1915 32020G35KT
FM192000 32020G35KT P6SM BKN040
RMK NXT FCST BY 191800Z=
Your time UTC time
Weather data provided by Environment Canada and NAV CANADA